createdAt,value
2023-05-23T00:04:39.028Z,100150.44
2023-05-23T00:09:40.700Z,100142.72
2023-05-23T00:14:42.372Z,100146.59
2023-05-23T00:19:45.670Z,100151.28
2023-05-23T00:24:47.357Z,100153.25
2023-05-23T00:29:48.994Z,100156.56
2023-05-23T00:34:50.620Z,100158.22
2023-05-23T00:39:52.470Z,100161.56
2023-05-23T00:44:54.160Z,100151.88
2023-05-23T00:49:55.923Z,100152.13
2023-05-23T00:54:57.591Z,100166.53
2023-05-23T00:59:59.197Z,100164.59
2023-05-23T01:05:02.473Z,100172.34
2023-05-23T01:10:05.246Z,100177.03
2023-05-23T01:15:12.613Z,100175.69
2023-05-23T01:20:30.007Z,100167.38
2023-05-23T01:25:49.783Z,100170.97
2023-05-23T01:30:56.016Z,100161.84
2023-05-23T01:36:00.257Z,100170.69
2023-05-23T01:41:01.881Z,100172.91
2023-05-23T01:46:06.330Z,100175.38
2023-05-23T01:51:08.207Z,100179.78
2023-05-23T01:56:10.202Z,100188.41
2023-05-23T02:01:12.057Z,100196.41
2023-05-23T02:06:13.674Z,100189.22
2023-05-23T02:11:16.064Z,100196.72
2023-05-23T02:16:18.144Z,100203.63
2023-05-23T02:21:20.284Z,100193.66
2023-05-23T02:26:21.881Z,100191.19
2023-05-23T02:31:23.626Z,100199.50
2023-05-23T02:36:25.488Z,100203.63
2023-05-23T02:41:27.411Z,100199.22
2023-05-23T02:46:29.191Z,100208.34
2023-05-23T02:51:32.215Z,100208.38
2023-05-23T02:56:33.832Z,100211.41
2023-05-23T03:01:35.660Z,100214.72
2023-05-23T03:06:37.394Z,100213.06
2023-05-23T03:11:39.129Z,100218.03
2023-05-23T03:16:40.913Z,100212.22
2023-05-23T03:21:42.725Z,100218.59
2023-05-23T03:26:45.319Z,100217.22
2023-05-23T03:31:47.258Z,100233.00
2023-05-23T03:36:49.340Z,100225.78
2023-05-23T03:41:51.278Z,100228.84
2023-05-23T03:46:53.276Z,100240.47
2023-05-23T03:51:55.949Z,100242.94
2023-05-23T03:56:57.730Z,100245.19
2023-05-23T04:02:01.330Z,100248.78
2023-05-23T04:07:05.730Z,100256.81
2023-05-23T04:12:09.809Z,100254.03
2023-05-23T04:17:12.113Z,100259.03
2023-05-23T04:22:16.487Z,100254.59
2023-05-23T04:27:19.923Z,100263.44
2023-05-23T04:32:23.116Z,100262.59
2023-05-23T04:37:26.418Z,100268.97
2023-05-23T04:42:29.497Z,100270.38
2023-05-23T04:47:38.348Z,100282.28
2023-05-23T04:52:43.180Z,100286.16
2023-05-23T04:57:45.336Z,100291.97
2023-05-23T05:02:47.090Z,100288.94
2023-05-23T05:07:48.814Z,100285.31
2023-05-23T05:12:50.581Z,100291.41
2023-05-23T05:17:53.729Z,100296.66
2023-05-23T05:22:58.135Z,100292.19
2023-05-23T05:28:06.040Z,100301.88
2023-05-23T05:33:11.695Z,100292.47
2023-05-23T05:38:14.437Z,100292.50
2023-05-23T05:43:16.664Z,100296.63
2023-05-23T05:48:18.343Z,100303.31
2023-05-23T05:53:20.214Z,100314.94
2023-05-23T05:58:22.723Z,100309.69
2023-05-23T06:03:32.930Z,100313.84
2023-05-23T06:08:34.804Z,100318.84
2023-05-23T06:13:36.567Z,100322.72
2023-05-23T06:18:38.369Z,100316.91
2023-05-23T06:23:40.385Z,100329.38
2023-05-23T06:28:42.183Z,100334.06
2023-05-23T06:33:43.787Z,100353.75
2023-05-23T06:38:45.847Z,100348.75
2023-05-23T06:43:47.450Z,100355.09
2023-05-23T06:49:10.662Z,100363.13
2023-05-23T06:54:16.630Z,100384.72
2023-05-23T06:59:19.589Z,100375.91
2023-05-23T07:04:21.526Z,100386.97
2023-05-23T07:09:33.770Z,100390.59
2023-05-23T07:14:43.680Z,100392.28
2023-05-23T07:19:46.570Z,100405.84
2023-05-23T07:24:51.738Z,100398.88
2023-05-23T07:29:53.727Z,100382.56
2023-05-23T07:34:55.400Z,100394.53
2023-05-23T07:39:57.154Z,100411.75
2023-05-23T07:44:58.977Z,100402.16
2023-05-23T07:50:02.448Z,100419.34
2023-05-23T07:55:05.399Z,100409.94
2023-05-23T08:00:10.139Z,100402.31
2023-05-23T08:05:16.919Z,100410.06
2023-05-23T08:10:18.757Z,100422.56
2023-05-23T08:15:23.112Z,100414.56
2023-05-23T08:20:32.996Z,100440.34
2023-05-23T08:25:34.924Z,100429.00
2023-05-23T08:30:37.235Z,100419.28
2023-05-23T08:35:39.855Z,100429.03
2023-05-23T08:40:50.491Z,100423.56
2023-05-23T08:45:53.808Z,100430.94
2023-05-23T08:50:55.822Z,100439.13
2023-05-23T08:56:02.716Z,100443.13
2023-05-23T09:01:13.927Z,100443.69
2023-05-23T09:06:18.271Z,100446.47
2023-05-23T09:11:22.013Z,100448.44
2023-05-23T09:16:24.524Z,100456.69
2023-05-23T09:21:31.949Z,100443.22
2023-05-23T09:26:50.213Z,100457.09
2023-05-23T09:31:52.084Z,100462.38
2023-05-23T09:36:55.647Z,100447.50
2023-05-23T09:41:59.580Z,100446.75
2023-05-23T09:47:06.987Z,100460.63
2023-05-23T09:52:08.670Z,100450.25
2023-05-23T09:57:11.593Z,100445.03
2023-05-23T10:02:16.150Z,100461.25
2023-05-23T10:07:23.476Z,100450.28
2023-05-23T10:12:31.167Z,100458.34
2023-05-23T10:18:02.733Z,100462.38
2023-05-23T10:23:05.479Z,100459.03
2023-05-23T10:28:07.255Z,100458.16
2023-05-23T10:33:09.668Z,100464.53
2023-05-23T10:38:23.164Z,100462.69
2023-05-23T10:43:27.449Z,100468.16
2023-05-23T10:48:29.002Z,100445.88
2023-05-23T10:53:31.707Z,100438.63
2023-05-23T10:58:34.862Z,100452.22
2023-05-23T11:03:42.544Z,100460.16
2023-05-23T11:08:48.867Z,100460.97
2023-05-23T11:13:56.807Z,100446.59
2023-05-23T11:19:21.023Z,100454.50
2023-05-23T11:24:23.266Z,100460.00
2023-05-23T11:29:27.246Z,100438.78
2023-05-23T11:34:28.886Z,100439.41
2023-05-23T11:39:30.677Z,100437.13
2023-05-23T11:44:32.263Z,100443.50
2023-05-23T11:49:38.635Z,100445.59
2023-05-23T11:54:42.447Z,100446.72
2023-05-23T11:59:44.557Z,100441.81
2023-05-23T12:04:46.237Z,100431.03
2023-05-23T12:09:48.286Z,100422.03
2023-05-23T12:14:49.940Z,100419.75
2023-05-23T12:19:53.026Z,100436.38
2023-05-23T12:24:56.029Z,100447.56
2023-05-23T12:30:11.905Z,100453.28
2023-05-23T12:35:16.627Z,100438.38
2023-05-23T12:40:19.377Z,100449.78
2023-05-23T12:45:25.153Z,100442.13
2023-05-23T12:50:27.413Z,100444.22
2023-05-23T12:55:29.072Z,100434.13
2023-05-23T13:00:30.845Z,100444.75
2023-05-23T13:05:32.458Z,100431.34
2023-05-23T13:10:40.225Z,100424.03
2023-05-23T13:15:42.643Z,100432.34
2023-05-23T13:20:44.622Z,100426.53
2023-05-23T13:25:46.229Z,100412.59
2023-05-23T13:30:48.095Z,100409.03
2023-05-23T13:35:50.988Z,100403.31
2023-05-23T13:40:52.984Z,100393.59
2023-05-23T13:45:54.820Z,100389.09
2023-05-23T13:50:58.316Z,100381.00
2023-05-23T13:55:59.936Z,100395.81
2023-05-23T14:01:01.562Z,100396.22
2023-05-23T14:06:04.976Z,100397.47
2023-05-23T14:11:06.616Z,100386.19
2023-05-23T14:16:08.257Z,100366.16
2023-05-23T14:21:09.925Z,100390.00
2023-05-23T14:26:11.529Z,100398.97
2023-05-23T14:31:13.136Z,100409.00
2023-05-23T14:36:14.763Z,100416.03
2023-05-23T14:41:16.490Z,100405.72
2023-05-23T14:46:18.367Z,100397.50
2023-05-23T14:51:34.631Z,100402.09
2023-05-23T14:56:41.724Z,100397.72
2023-05-23T15:01:43.786Z,100399.50
2023-05-23T15:06:47.215Z,100403.31
2023-05-23T15:11:49.629Z,100409.28
2023-05-23T15:16:51.697Z,100411.28
2023-05-23T15:21:55.838Z,100404.41
2023-05-23T15:27:08.164Z,100410.22
2023-05-23T15:32:19.467Z,100398.94
2023-05-23T15:37:21.230Z,100401.44
2023-05-23T15:42:22.818Z,100394.59
2023-05-23T15:47:24.414Z,100399.00
2023-05-23T15:52:26.067Z,100408.34
2023-05-23T15:57:27.690Z,100416.91
2023-05-23T16:02:29.335Z,100400.66
2023-05-23T16:07:31.235Z,100413.56
2023-05-23T16:12:32.893Z,100419.44
2023-05-23T16:17:34.551Z,100424.03
2023-05-23T16:22:36.446Z,100423.91
2023-05-23T16:27:38.085Z,100444.19
2023-05-23T16:32:39.720Z,100424.31
2023-05-23T16:37:41.373Z,100412.75
2023-05-23T16:42:44.397Z,100408.41
2023-05-23T16:47:46.072Z,100422.84
2023-05-23T16:52:47.760Z,100422.03
2023-05-23T16:57:49.426Z,100421.47
2023-05-23T17:02:51.393Z,100423.59
2023-05-23T17:07:53.173Z,100430.84
2023-05-23T17:12:54.861Z,100440.09
2023-05-23T17:17:56.531Z,100437.06
2023-05-23T17:22:58.199Z,100443.22
2023-05-23T17:27:59.788Z,100454.09
2023-05-23T17:33:01.488Z,100459.69
2023-05-23T17:38:05.780Z,100449.66
2023-05-23T17:43:07.440Z,100459.63
2023-05-23T17:48:09.216Z,100470.16
2023-05-23T17:53:11.282Z,100457.34
2023-05-23T17:58:12.946Z,100467.84
2023-05-23T18:03:14.614Z,100478.34
2023-05-23T18:08:16.427Z,100488.25
2023-05-23T18:13:18.148Z,100500.06
2023-05-23T18:18:19.884Z,100502.19
2023-05-23T18:23:21.875Z,100496.88
2023-05-23T18:28:23.509Z,100487.13
2023-05-23T18:33:25.142Z,100493.09
2023-05-23T18:38:27.156Z,100493.88
2023-05-23T18:43:28.836Z,100492.84
2023-05-23T18:48:31.900Z,100507.94
2023-05-23T18:53:35.525Z,100511.22
2023-05-23T18:58:37.221Z,100510.84
2023-05-23T19:03:38.966Z,100526.38
2023-05-23T19:08:42.264Z,100532.53
2023-05-23T19:13:43.887Z,100546.59
2023-05-23T19:18:45.989Z,100548.84
2023-05-23T19:23:47.641Z,100558.50
2023-05-23T19:28:49.349Z,100563.84
2023-05-23T19:33:51.110Z,100568.22
2023-05-23T19:38:53.774Z,100587.53
2023-05-23T19:43:55.588Z,100576.25
2023-05-23T19:49:00.150Z,100583.13
2023-05-23T19:54:01.872Z,100582.44
2023-05-23T19:59:03.567Z,100583.47
2023-05-23T20:04:06.177Z,100586.66
2023-05-23T20:09:07.942Z,100593.84
2023-05-23T20:14:09.855Z,100603.03
2023-05-23T20:19:11.506Z,100613.72
2023-05-23T20:24:14.930Z,100616.41
2023-05-23T20:29:16.551Z,100618.59
2023-05-23T20:34:18.205Z,100621.25
2023-05-23T20:39:21.926Z,100633.38
2023-05-23T20:44:23.917Z,100633.03
2023-05-23T20:49:26.946Z,100640.72
2023-05-23T20:54:28.613Z,100639.78
2023-05-23T20:59:30.510Z,100645.78
2023-05-23T21:04:33.494Z,100646.53
2023-05-23T21:09:35.132Z,100645.09
2023-05-23T21:14:43.258Z,100652.19
2023-05-23T21:19:44.971Z,100655.44
2023-05-23T21:24:46.690Z,100652.34
2023-05-23T21:29:48.363Z,100654.75
2023-05-23T21:34:50.046Z,100657.16
2023-05-23T21:39:52.770Z,100655.13
2023-05-23T21:44:54.479Z,100653.94
2023-05-23T21:49:56.077Z,100649.53
2023-05-23T21:54:57.660Z,100647.03
2023-05-23T21:59:59.284Z,100658.59
2023-05-23T22:05:00.911Z,100663.78
2023-05-23T22:10:02.636Z,100649.66
2023-05-23T22:15:05.157Z,100652.69
2023-05-23T22:20:07.194Z,100650.56
2023-05-23T22:25:09.039Z,100639.41
2023-05-23T22:30:11.118Z,100646.53
2023-05-23T22:35:12.739Z,100654.50
2023-05-23T22:40:14.367Z,100668.66
2023-05-23T22:45:16.182Z,100663.84
2023-05-23T22:50:17.819Z,100659.91
2023-05-23T22:55:19.494Z,100646.47
2023-05-23T23:00:21.504Z,100652.72
2023-05-23T23:05:23.173Z,100656.19
2023-05-23T23:10:24.986Z,100649.41
2023-05-23T23:15:26.642Z,100651.69
2023-05-23T23:20:28.635Z,100659.81
2023-05-23T23:25:30.613Z,100652.03
2023-05-23T23:30:32.217Z,100648.44
2023-05-23T23:35:33.792Z,100637.31
2023-05-23T23:40:35.473Z,100640.41
2023-05-23T23:45:37.101Z,100642.22
2023-05-23T23:50:38.921Z,100640.56
2023-05-23T23:55:40.740Z,100645.00
